Time;durP1;ratioP1;P1;durP2;ratioP2;P2;SDS_P1;SDS_P2;PMS_P1;PMS_P2;Temp;Humidity;BMP_temperature;BMP_pressure;BME280_temperature;BME280_humidity;BME280_pressure;Samples;Min_cycle;Max_cycle;Signal;HPM_P1;HPM_P2
2022/03/31 00:00:39;;;;;;;1.92;1.92;;;8.90;99.90;;;;;;4146027;28;20064;-92
2022/03/31 00:02:43;;;;;;;2.00;2.00;;;8.90;99.90;;;;;;4144560;28;20060;-90
2022/03/31 00:04:45;;;;;;;6.53;2.17;;;8.90;99.90;;;;;;4127810;28;20034;-92
2022/03/31 00:06:48;;;;;;;22.30;3.88;;;9.00;99.90;;;;;;4130513;28;20039;-91
2022/03/31 00:08:50;;;;;;;217.48;15.23;;;8.90;99.90;;;;;;4126751;28;20556;-90
2022/03/31 00:10:55;;;;;;;246.95;15.88;;;8.90;99.90;;;;;;4157645;28;20052;-86
2022/03/31 00:13:01;;;;;;;150.18;10.88;;;8.90;99.90;;;;;;4144961;28;20042;-91
2022/03/31 00:15:03;;;;;;;243.95;16.15;;;8.80;99.90;;;;;;4165690;28;20129;-89
2022/03/31 02:10:44;;;;;;;59.20;7.22;;;8.90;99.90;;;;;;4162682;28;20040;-90
2022/03/31 02:12:48;;;;;;;15.20;4.55;;;8.80;99.90;;;;;;4140200;28;20046;-89
2022/03/31 02:14:51;;;;;;;29.67;4.93;;;8.80;99.90;;;;;;4164211;28;20132;-89
2022/03/31 02:16:55;;;;;;;3.42;3.33;;;8.80;99.90;;;;;;4146700;28;20145;-90
2022/03/31 02:18:58;;;;;;;2.65;2.45;;;8.80;99.90;;;;;;4163901;28;20041;-89
2022/03/31 02:21:02;;;;;;;3.33;3.05;;;8.80;99.90;;;;;;4172730;28;20120;-91
2022/03/31 02:23:05;;;;;;;12.55;3.13;;;8.80;99.90;;;;;;4146270;28;20109;-90
2022/03/31 02:25:08;;;;;;;118.53;8.52;;;8.80;99.90;;;;;;4146486;28;20527;-91
2022/03/31 02:27:11;;;;;;;159.63;9.00;;;8.80;99.90;;;;;;4146151;28;20121;-90
2022/03/31 02:29:13;;;;;;;125.45;8.75;;;8.80;99.90;;;;;;4149832;28;20045;-89
2022/03/31 02:31:15;;;;;;;;;;;8.80;99.90;;;;;;4152316;28;20073;-91
2022/03/31 02:33:18;;;;;;;2.75;2.55;;;8.80;99.90;;;;;;4142865;28;19930;-91
2022/03/31 02:35:20;;;;;;;2.75;2.75;;;8.80;99.90;;;;;;4155213;28;20128;-90
2022/03/31 02:37:24;;;;;;;2.25;2.25;;;8.80;99.90;;;;;;4145798;28;20069;-90
2022/03/31 02:39:29;;;;;;;2.00;2.00;;;8.80;99.90;;;;;;4124231;28;20617;-89
2022/03/31 02:41:31;;;;;;;2.65;2.55;;;8.90;99.90;;;;;;4114278;28;20042;-90
2022/03/31 02:43:33;;;;;;;3.40;2.08;;;8.90;99.90;;;;;;4116219;28;20050;-89
2022/03/31 02:45:35;;;;;;;2.17;2.17;;;9.00;99.90;;;;;;4146375;28;20129;-90
2022/03/31 02:47:38;;;;;;;10.48;3.58;;;9.10;99.90;;;;;;4146028;28;20052;-90
2022/03/31 02:49:41;;;;;;;59.55;5.88;;;9.00;99.90;;;;;;4156317;28;20045;-91
2022/03/31 02:51:44;;;;;;;3.70;3.22;;;9.00;99.90;;;;;;4169638;28;20056;-88
2022/03/31 02:56:07;;;;;;;68.25;6.78;;;9.00;99.90;;;;;;4138411;28;20076;-90
2022/03/31 02:58:09;;;;;;;46.67;5.07;;;8.90;99.90;;;;;;4145554;28;20042;-91
2022/03/31 03:00:13;;;;;;;2.72;2.53;;;8.90;99.90;;;;;;4163388;28;20041;-91
2022/03/31 03:02:16;;;;;;;3.05;2.67;;;9.00;99.90;;;;;;4163218;28;20033;-89
2022/03/31 03:04:19;;;;;;;3.95;2.92;;;9.10;99.90;;;;;;4144695;28;20041;-91
2022/03/31 03:06:21;;;;;;;2.63;2.40;;;9.20;99.90;;;;;;4162926;28;20100;-90
2022/03/31 03:08:27;;;;;;;4.35;2.95;;;9.30;99.90;;;;;;4175643;28;20061;-90
2022/03/31 03:10:29;;;;;;;3.17;3.08;;;9.30;99.90;;;;;;4132969;28;20074;-89
2022/03/31 03:12:31;;;;;;;4.07;3.97;;;9.30;99.90;;;;;;4149334;28;20050;-90
2022/03/31 03:14:35;;;;;;;3.63;3.42;;;9.30;99.90;;;;;;4159463;28;20140;-91
2022/03/31 03:16:39;;;;;;;2.88;2.78;;;9.30;99.90;;;;;;4151733;28;20132;-91
2022/03/31 03:18:42;;;;;;;2.88;2.70;;;9.20;99.90;;;;;;4159239;28;20485;-91
2022/03/31 03:20:46;;;;;;;8.73;3.72;;;9.20;99.90;;;;;;4163105;28;20083;-91
2022/03/31 03:22:49;;;;;;;4.50;4.10;;;9.20;99.90;;;;;;4145611;28;20046;-91
2022/03/31 03:24:51;;;;;;;9.80;3.47;;;9.10;99.90;;;;;;4144360;28;20072;-89
2022/03/31 03:26:54;;;;;;;3.78;3.53;;;9.10;99.90;;;;;;4129765;28;20074;-90
2022/03/31 03:28:57;;;;;;;6.53;3.17;;;9.30;99.90;;;;;;4160208;28;20070;-89
2022/03/31 03:30:59;;;;;;;8.30;4.85;;;9.60;99.90;;;;;;4145913;28;20531;-90
2022/03/31 03:33:01;;;;;;;17.48;4.53;;;9.80;99.90;;;;;;4162817;28;20509;-91
2022/03/31 03:35:05;;;;;;;5.45;4.43;;;9.80;99.90;;;;;;4129664;28;20049;-90
2022/03/31 03:37:07;;;;;;;6.47;4.63;;;9.80;99.90;;;;;;4137386;28;20553;-89
2022/03/31 03:39:11;;;;;;;8.40;3.75;;;9.70;99.90;;;;;;4162757;28;20040;-91
2022/03/31 03:41:14;;;;;;;13.50;4.10;;;9.70;99.90;;;;;;4162954;28;20038;-91
2022/03/31 03:43:17;;;;;;;17.67;6.30;;;9.80;99.90;;;;;;4140380;28;20117;-90
2022/03/31 03:45:19;;;;;;;24.92;6.82;;;10.00;99.90;;;;;;4148181;28;20038;-91
2022/03/31 03:47:21;;;;;;;14.88;5.22;;;10.10;99.90;;;;;;4165750;28;20572;-91
2022/03/31 03:49:23;;;;;;;30.10;5.55;;;10.10;99.90;;;;;;4134027;28;20666;-91
2022/03/31 03:51:26;;;;;;;20.92;6.40;;;10.20;99.90;;;;;;4145956;28;20126;-92
2022/03/31 03:53:28;;;;;;;31.92;5.70;;;10.20;99.90;;;;;;4162856;28;20124;-90
2022/03/31 03:55:31;;;;;;;24.83;5.95;;;10.20;99.90;;;;;;4164990;28;20493;-93
2022/03/31 03:57:34;;;;;;;20.67;7.18;;;10.30;99.90;;;;;;4162879;28;20505;-92
2022/03/31 03:59:36;;;;;;;;;;;10.30;99.90;;;;;;4129323;28;20133;-92
2022/03/31 04:01:38;;;;;;;42.17;9.43;;;10.30;99.90;;;;;;4166261;28;20452;-91
2022/03/31 04:03:40;;;;;;;37.03;9.13;;;10.30;99.90;;;;;;4146493;28;20493;-91
2022/03/31 04:05:43;;;;;;;31.52;6.10;;;10.40;99.90;;;;;;4150734;28;20041;-89
2022/03/31 04:07:45;;;;;;;34.95;12.70;;;10.40;99.90;;;;;;4140182;28;20121;-91
2022/03/31 04:09:47;;;;;;;35.85;8.13;;;10.40;99.90;;;;;;4154722;28;20069;-90
2022/03/31 04:11:49;;;;;;;38.03;10.10;;;10.40;99.90;;;;;;4154252;28;20057;-89
2022/03/31 04:13:52;;;;;;;32.67;8.63;;;10.40;99.90;;;;;;4129018;28;20113;-91
2022/03/31 04:15:54;;;;;;;31.42;8.20;;;10.50;99.90;;;;;;4131694;28;20050;-90
2022/03/31 04:17:57;;;;;;;41.70;7.95;;;10.40;99.90;;;;;;4153576;28;20046;-90
2022/03/31 04:20:00;;;;;;;60.95;9.90;;;10.50;99.90;;;;;;4161840;28;20037;-90
2022/03/31 04:22:03;;;;;;;52.63;11.55;;;10.50;99.90;;;;;;4144977;28;20041;-91
2022/03/31 04:24:05;;;;;;;44.35;9.25;;;10.60;99.90;;;;;;4151353;28;20128;-90
2022/03/31 04:26:08;;;;;;;54.28;11.77;;;10.50;99.90;;;;;;4150677;28;20046;-89
2022/03/31 04:28:10;;;;;;;50.20;9.77;;;10.60;99.90;;;;;;4162450;28;20052;-90
2022/03/31 04:30:18;;;;;;;55.55;10.57;;;10.60;99.90;;;;;;4162821;28;20038;-90
2022/03/31 04:32:20;;;;;;;70.32;15.15;;;10.60;99.90;;;;;;4145268;28;20411;-91
2022/03/31 04:34:23;;;;;;;43.60;10.40;;;10.70;99.90;;;;;;4146487;28;20133;-90
2022/03/31 04:36:25;;;;;;;64.68;12.18;;;10.70;99.90;;;;;;4144682;28;20128;-91
2022/03/31 04:38:27;;;;;;;67.40;11.38;;;10.70;99.90;;;;;;4143729;28;20140;-91
2022/03/31 04:40:30;;;;;;;57.47;10.48;;;10.80;99.90;;;;;;4144931;28;20036;-91
2022/03/31 04:42:32;;;;;;;51.60;12.30;;;10.80;99.90;;;;;;4162361;28;20068;-91
2022/03/31 04:44:37;;;;;;;54.55;11.48;;;10.80;99.90;;;;;;4145984;28;20602;-89
2022/03/31 04:46:41;;;;;;;51.08;10.20;;;10.80;99.90;;;;;;4142734;28;20030;-90
2022/03/31 04:48:43;;;;;;;57.53;11.80;;;10.80;99.90;;;;;;4136306;28;20113;-93
2022/03/31 04:50:45;;;;;;;64.60;12.90;;;10.80;99.90;;;;;;4144377;28;20480;-91
2022/03/31 04:52:47;;;;;;;52.42;10.88;;;10.80;99.90;;;;;;4145130;28;20072;-92
2022/03/31 04:54:51;;;;;;;56.95;12.25;;;10.80;99.90;;;;;;4162404;28;20045;-92
2022/03/31 04:56:53;;;;;;;52.22;9.73;;;10.80;99.90;;;;;;4140575;28;20045;-89
2022/03/31 04:58:55;;;;;;;48.13;10.18;;;10.80;99.90;;;;;;4148517;28;20033;-93
2022/03/31 05:00:57;;;;;;;58.70;10.90;;;11.00;99.90;;;;;;4148935;28;20068;-89
2022/03/31 05:02:59;;;;;;;44.85;10.02;;;11.00;99.90;;;;;;4126869;28;20066;-89
2022/03/31 05:05:02;;;;;;;56.08;11.95;;;11.00;99.90;;;;;;4141458;28;20080;-90
2022/03/31 05:07:04;;;;;;;47.75;9.15;;;10.90;99.90;;;;;;4156360;28;20044;-90
2022/03/31 05:09:07;;;;;;;63.30;11.70;;;11.00;99.90;;;;;;4124297;28;20066;-89
2022/03/31 05:11:09;;;;;;;49.55;11.00;;;11.00;99.90;;;;;;4147755;28;20140;-90
2022/03/31 05:13:12;;;;;;;50.10;9.25;;;11.00;99.90;;;;;;4147349;28;20508;-92
2022/03/31 05:15:14;;;;;;;51.95;11.15;;;11.00;99.90;;;;;;4130805;28;20053;-91
2022/03/31 05:17:16;;;;;;;45.83;10.73;;;11.00;99.90;;;;;;4147687;28;20045;-91
2022/03/31 05:19:19;;;;;;;66.95;12.52;;;10.90;99.90;;;;;;4131222;28;20051;-91
2022/03/31 05:21:22;;;;;;;49.53;10.30;;;11.00;99.90;;;;;;4142221;28;20045;-92
2022/03/31 05:23:24;;;;;;;46.05;9.13;;;10.90;99.90;;;;;;4147232;28;20536;-91
2022/03/31 05:25:26;;;;;;;51.78;11.82;;;11.00;99.90;;;;;;4160610;28;20037;-91
2022/03/31 05:27:29;;;;;;;49.67;10.27;;;11.00;99.90;;;;;;4147480;28;20781;-90
2022/03/31 05:29:31;;;;;;;54.90;11.27;;;11.00;99.90;;;;;;4147491;28;20108;-92
2022/03/31 05:31:35;;;;;;;44.17;10.88;;;11.00;99.90;;;;;;4164080;28;20037;-91
2022/03/31 05:33:37;;;;;;;50.05;10.70;;;11.00;99.90;;;;;;4146289;28;20038;-90
2022/03/31 05:35:39;;;;;;;47.03;10.50;;;11.00;99.90;;;;;;4147046;28;20050;-89
2022/03/31 05:37:43;;;;;;;61.90;13.20;;;11.00;99.90;;;;;;4160395;28;20053;-91
2022/03/31 05:39:47;;;;;;;49.00;11.75;;;11.00;99.90;;;;;;4116890;28;20046;-92
2022/03/31 05:41:50;;;;;;;55.10;13.88;;;11.00;99.90;;;;;;4145237;28;20610;-91
2022/03/31 05:43:53;;;;;;;47.13;13.20;;;11.00;99.90;;;;;;4158691;28;20129;-91
2022/03/31 05:45:58;;;;;;;47.03;12.38;;;11.00;99.90;;;;;;4136727;28;20045;-90
2022/03/31 05:48:00;;;;;;;48.63;11.70;;;10.90;99.90;;;;;;4147620;28;20405;-89
2022/03/31 05:50:04;;;;;;;50.03;10.38;;;10.90;99.90;;;;;;4147656;28;20041;-90
2022/03/31 05:52:08;;;;;;;37.47;9.65;;;10.90;99.90;;;;;;4130130;28;20043;-90
2022/03/31 05:54:11;;;;;;;44.70;13.02;;;10.90;99.90;;;;;;4147705;28;20074;-90
2022/03/31 05:56:14;;;;;;;51.53;13.90;;;10.90;99.90;;;;;;4167623;28;20595;-91
2022/03/31 05:58:17;;;;;;;47.72;12.90;;;10.90;99.90;;;;;;4135652;28;20076;-90
2022/03/31 06:00:20;;;;;;;41.33;10.65;;;10.90;99.90;;;;;;4164543;28;20069;-90
2022/03/31 06:02:23;;;;;;;41.03;9.93;;;10.90;99.90;;;;;;4131004;28;20070;-90
2022/03/31 06:04:45;;;;;;;40.88;10.27;;;11.00;99.90;;;;;;4130891;28;20073;-90
2022/03/31 06:06:48;;;;;;;49.10;11.45;;;11.00;99.90;;;;;;4141498;28;20457;-88
2022/03/31 06:08:52;;;;;;;41.42;10.95;;;11.00;99.90;;;;;;4166790;28;20033;-87
2022/03/31 06:10:54;;;;;;;30.70;8.00;;;11.00;99.90;;;;;;4146653;28;20513;-88
2022/03/31 06:12:57;;;;;;;33.10;9.32;;;11.00;99.90;;;;;;4144426;28;20081;-87
2022/03/31 06:15:00;;;;;;;30.38;9.02;;;11.00;99.90;;;;;;4145687;28;20084;-90
2022/03/31 06:17:02;;;;;;;30.38;9.32;;;11.00;99.90;;;;;;4145668;28;20049;-90
2022/03/31 06:19:08;;;;;;;25.30;6.88;;;11.00;99.90;;;;;;4149059;28;21067;-89
2022/03/31 06:21:10;;;;;;;34.22;8.55;;;11.00;99.90;;;;;;4146481;28;20822;-88
2022/03/31 06:23:12;;;;;;;25.15;8.50;;;11.00;99.90;;;;;;4146366;28;20450;-90
2022/03/31 06:25:14;;;;;;;23.67;9.10;;;11.00;99.90;;;;;;4146488;28;20046;-89
2022/03/31 06:27:17;;;;;;;;;;;11.10;99.90;;;;;;4147170;28;20061;-90
2022/03/31 06:29:20;;;;;;;29.08;9.02;;;11.10;99.90;;;;;;4146613;28;19925;-91
2022/03/31 06:31:27;;;;;;;34.63;9.88;;;11.10;99.90;;;;;;4134704;28;20121;-89
2022/03/31 06:33:29;;;;;;;40.78;9.95;;;11.10;99.90;;;;;;4145029;28;20536;-88
2022/03/31 06:35:31;;;;;;;35.97;10.10;;;11.00;99.90;;;;;;4145872;28;20070;-89
2022/03/31 06:37:38;;;;;;;39.70;10.35;;;11.10;99.90;;;;;;4146374;28;20065;-90
2022/03/31 06:39:40;;;;;;;47.05;10.15;;;11.10;99.90;;;;;;4139542;28;20130;-89
2022/03/31 06:41:43;;;;;;;46.63;11.75;;;11.10;99.90;;;;;;4130430;28;20459;-89
2022/03/31 06:43:48;;;;;;;40.03;10.40;;;11.00;99.90;;;;;;4147823;28;20053;-89
2022/03/31 06:45:50;;;;;;;41.92;10.02;;;11.10;99.90;;;;;;4136005;28;20570;-89
2022/03/31 06:47:52;;;;;;;42.25;10.18;;;11.10;99.90;;;;;;4137384;28;20493;-89
2022/03/31 06:50:00;;;;;;;44.88;10.07;;;11.00;99.90;;;;;;4133424;28;20117;-88
2022/03/31 06:52:03;;;;;;;47.40;9.07;;;11.00;99.90;;;;;;4129111;28;20748;-89
2022/03/31 06:54:06;;;;;;;55.45;11.50;;;11.10;99.90;;;;;;4162568;28;20117;-88
2022/03/31 06:56:10;;;;;;;41.65;9.73;;;11.10;99.90;;;;;;4146339;28;20421;-89
2022/03/31 06:58:12;;;;;;;46.58;11.57;;;11.10;99.90;;;;;;4163343;28;20116;-90
2022/03/31 07:00:15;;;;;;;45.35;12.23;;;11.10;99.90;;;;;;4134230;28;20042;-89
2022/03/31 07:02:18;;;;;;;58.35;9.70;;;11.10;99.90;;;;;;4153532;28;20662;-89
2022/03/31 07:04:20;;;;;;;49.00;10.93;;;11.10;99.90;;;;;;4129445;28;20052;-89
2022/03/31 07:06:23;;;;;;;46.17;11.60;;;11.10;99.90;;;;;;4163509;28;20120;-89
2022/03/31 07:08:25;;;;;;;39.17;10.82;;;11.10;99.90;;;;;;4137424;28;20080;-86
2022/03/31 07:10:27;;;;;;;;;;;11.20;99.90;;;;;;4162910;28;20073;-88
2022/03/31 07:12:29;;;;;;;46.53;10.00;;;11.10;99.90;;;;;;4129176;28;20016;-89
2022/03/31 07:14:35;;;;;;;46.17;11.68;;;11.10;99.90;;;;;;4147499;28;20041;-90
2022/03/31 07:16:39;;;;;;;47.17;11.43;;;11.20;99.90;;;;;;4142774;28;20037;-90
2022/03/31 07:18:42;;;;;;;45.42;10.88;;;11.20;99.90;;;;;;4141692;28;20133;-89
2022/03/31 07:20:45;;;;;;;43.33;10.90;;;11.20;99.90;;;;;;4129189;28;20474;-90
2022/03/31 07:22:48;;;;;;;52.70;11.82;;;11.20;99.90;;;;;;4139403;28;20117;-89
2022/03/31 07:24:50;;;;;;;51.70;9.70;;;11.30;99.90;;;;;;4151915;28;20033;-87
2022/03/31 07:26:53;;;;;;;49.35;10.45;;;11.30;99.90;;;;;;4145589;28;20034;-89
2022/03/31 07:28:56;;;;;;;35.38;10.38;;;11.30;99.90;;;;;;4145494;28;20054;-89
2022/03/31 07:31:00;;;;;;;28.60;8.05;;;11.30;99.90;;;;;;4145384;28;20129;-89
2022/03/31 07:33:04;;;;;;;28.58;8.40;;;11.30;99.90;;;;;;4144827;28;20042;-89
2022/03/31 07:35:08;;;;;;;36.10;9.55;;;11.30;99.90;;;;;;4162769;28;20050;-88
2022/03/31 07:37:10;;;;;;;35.67;9.82;;;11.30;99.90;;;;;;4145716;28;20046;-89
2022/03/31 07:39:13;;;;;;;;;;;11.30;99.90;;;;;;4145645;28;20129;-88
2022/03/31 07:41:18;;;;;;;29.42;7.72;;;11.30;99.90;;;;;;4155659;28;19925;-88
2022/03/31 07:43:20;;;;;;;29.73;8.82;;;11.30;99.90;;;;;;4173606;28;20076;-89
2022/03/31 07:45:22;;;;;;;29.00;10.13;;;11.30;99.90;;;;;;4140239;28;20034;-89
2022/03/31 07:47:24;;;;;;;35.70;9.18;;;11.30;99.90;;;;;;4145330;28;20066;-87
2022/03/31 07:49:27;;;;;;;24.67;10.27;;;11.30;99.90;;;;;;4144141;28;20150;-88
2022/03/31 07:51:36;;;;;;;24.17;8.52;;;11.30;99.90;;;;;;4144362;28;20038;-88
2022/03/31 07:53:39;;;;;;;32.50;10.45;;;11.30;99.90;;;;;;4162175;28;20049;-88
2022/03/31 07:55:43;;;;;;;31.95;10.00;;;11.30;99.90;;;;;;4145103;28;20041;-89
2022/03/31 07:57:45;;;;;;;41.97;11.95;;;11.30;99.90;;;;;;4150255;28;20432;-88
2022/03/31 07:59:48;;;;;;;34.15;9.48;;;11.40;99.90;;;;;;4152543;28;20073;-89
2022/03/31 08:01:52;;;;;;;38.05;9.90;;;11.40;99.90;;;;;;4144950;28;20129;-90
2022/03/31 08:03:54;;;;;;;41.85;10.65;;;11.30;99.90;;;;;;4128722;28;20141;-89
2022/03/31 08:05:57;;;;;;;37.03;12.48;;;11.40;99.90;;;;;;4130318;28;20042;-89
2022/03/31 08:07:59;;;;;;;46.17;12.25;;;11.50;99.90;;;;;;4138714;28;20133;-89
2022/03/31 08:10:02;;;;;;;45.13;10.40;;;11.50;99.90;;;;;;4143873;28;20038;-88
2022/03/31 08:12:06;;;;;;;49.72;13.65;;;11.40;99.90;;;;;;4128537;28;20137;-89
2022/03/31 08:14:08;;;;;;;40.88;11.40;;;11.40;99.90;;;;;;4128209;28;20073;-89
2022/03/31 08:16:12;;;;;;;42.25;12.27;;;11.40;99.90;;;;;;4162683;28;20095;-89
2022/03/31 08:18:15;;;;;;;40.17;11.18;;;11.40;99.90;;;;;;4143896;28;20053;-89
2022/03/31 08:20:18;;;;;;;44.00;14.13;;;11.40;99.90;;;;;;4134763;28;20555;-89
2022/03/31 08:22:21;;;;;;;33.22;11.32;;;11.50;99.90;;;;;;4134002;28;20361;-89
2022/03/31 08:24:24;;;;;;;40.70;11.98;;;11.40;99.90;;;;;;4161972;28;20039;-89
2022/03/31 08:26:26;;;;;;;38.15;10.45;;;11.50;99.90;;;;;;4170198;22;20057;-89
2022/03/31 08:28:31;;;;;;;42.97;11.90;;;11.50;99.90;;;;;;4142672;28;20084;-89
2022/03/31 08:30:35;;;;;;;50.22;12.27;;;11.50;99.90;;;;;;4159438;28;20500;-89
2022/03/31 08:32:42;;;;;;;38.33;11.95;;;11.60;99.90;;;;;;4177659;28;20044;-88
2022/03/31 08:34:44;;;;;;;48.97;12.13;;;11.60;99.90;;;;;;4159600;28;20069;-89
2022/03/31 08:36:47;;;;;;;46.47;12.80;;;11.60;99.90;;;;;;4164253;28;20041;-88
2022/03/31 08:38:49;;;;;;;36.90;8.57;;;11.70;99.90;;;;;;4181111;28;20069;-89
2022/03/31 08:40:54;;;;;;;36.58;10.68;;;11.80;99.90;;;;;;4148105;28;20045;-89
2022/03/31 08:42:57;;;;;;;36.13;9.73;;;11.80;99.90;;;;;;4164337;28;20140;-89
2022/03/31 08:45:00;;;;;;;33.35;9.48;;;11.80;99.90;;;;;;4180440;28;20045;-89
2022/03/31 08:47:02;;;;;;;36.83;10.02;;;11.70;99.90;;;;;;4164517;28;20045;-88
2022/03/31 08:49:08;;;;;;;29.88;9.02;;;11.80;99.90;;;;;;4180113;28;20041;-89
2022/03/31 08:51:10;;;;;;;38.28;10.38;;;11.80;99.90;;;;;;4147985;28;20499;-88
2022/03/31 08:53:13;;;;;;;;;;;11.70;99.90;;;;;;4162273;28;20620;-88
2022/03/31 08:55:18;;;;;;;23.67;8.27;;;11.70;99.90;;;;;;4154784;28;20020;-88
2022/03/31 08:57:20;;;;;;;29.98;8.60;;;11.80;99.90;;;;;;4162957;28;20632;-88
2022/03/31 08:59:35;;;;;;;30.27;8.90;;;11.80;99.90;;;;;;4180306;28;20037;-88
2022/03/31 09:01:40;;;;;;;27.23;9.10;;;11.80;99.90;;;;;;4163988;28;20061;-88
2022/03/31 09:03:44;;;;;;;29.92;8.93;;;11.80;99.90;;;;;;4147921;28;20048;-87
2022/03/31 09:06:09;;;;;;;33.03;9.43;;;11.80;99.90;;;;;;4179114;28;20653;-88
2022/03/31 09:08:13;;;;;;;29.60;9.30;;;11.80;99.90;;;;;;4180283;28;20399;-89
2022/03/31 09:10:31;;;;;;;33.40;9.68;;;11.80;99.90;;;;;;4163886;28;20076;-89
2022/03/31 09:12:40;;;;;;;25.55;8.90;;;11.80;99.90;;;;;;4140662;28;20046;-88
2022/03/31 09:15:12;;;;;;;26.58;8.00;;;11.90;99.90;;;;;;4160328;28;20045;-87
2022/03/31 09:17:16;;;;;;;29.77;9.10;;;11.80;99.90;;;;;;4163297;28;20081;-88
2022/03/31 09:19:20;;;;;;;33.13;8.68;;;11.80;99.90;;;;;;4162440;28;20303;-89
2022/03/31 09:21:23;;;;;;;40.70;11.07;;;11.80;99.90;;;;;;4177905;28;20035;-89
2022/03/31 09:23:32;;;;;;;39.47;10.50;;;11.90;99.90;;;;;;4160871;28;20057;-87
2022/03/31 09:25:39;;;;;;;;;;;11.80;99.90;;;;;;4163019;28;20515;-89
2022/03/31 09:27:40;;;;;;;46.55;13.18;;;11.80;99.90;;;;;;4176513;28;19942;-88
2022/03/31 09:29:43;;;;;;;33.42;11.98;;;11.80;99.90;;;;;;4173970;28;20065;-88
2022/03/31 09:31:47;;;;;;;29.40;10.40;;;11.80;99.90;;;;;;4160231;28;20052;-87
2022/03/31 09:33:55;;;;;;;27.88;8.15;;;11.70;99.90;;;;;;4147271;28;20042;-88
2022/03/31 09:36:05;;;;;;;27.42;11.02;;;11.60;99.90;;;;;;4158921;28;20133;-89
2022/03/31 09:38:13;;;;;;;33.03;11.95;;;11.70;99.90;;;;;;4181425;28;20037;-89
2022/03/31 09:40:19;;;;;;;21.58;10.63;;;11.60;99.90;;;;;;4187240;28;20136;-89
2022/03/31 09:42:23;;;;;;;23.90;11.93;;;11.70;99.90;;;;;;4162292;28;20061;-88
2022/03/31 09:44:25;;;;;;;27.40;11.13;;;11.70;99.90;;;;;;4174028;28;20033;-89
2022/03/31 09:46:33;;;;;;;24.10;8.93;;;11.70;99.90;;;;;;4157212;28;20030;-88
2022/03/31 09:48:40;;;;;;;18.25;7.32;;;11.70;99.90;;;;;;4176989;28;20136;-89
2022/03/31 09:50:42;;;;;;;18.17;9.15;;;11.70;99.90;;;;;;4167847;28;20037;-89
2022/03/31 09:52:44;;;;;;;22.40;8.20;;;11.80;99.90;;;;;;4186986;28;20455;-89
2022/03/31 09:54:48;;;;;;;17.23;7.60;;;11.80;99.90;;;;;;4179842;28;20068;-89
2022/03/31 09:56:51;;;;;;;9.85;6.07;;;11.80;99.90;;;;;;4185453;28;20077;-88
2022/03/31 09:59:01;;;;;;;12.18;4.13;;;11.80;99.90;;;;;;4192603;28;20065;-89
2022/03/31 10:01:05;;;;;;;10.98;4.70;;;11.70;99.90;;;;;;4187165;28;20151;-91
2022/03/31 10:03:08;;;;;;;13.40;3.42;;;11.70;99.90;;;;;;4161235;28;20133;-89
2022/03/31 10:05:15;;;;;;;18.55;4.32;;;11.70;99.90;;;;;;4165893;28;20051;-89
2022/03/31 10:07:17;;;;;;;15.35;4.82;;;11.80;99.90;;;;;;4195554;28;20120;-88
2022/03/31 10:09:21;;;;;;;19.13;5.22;;;11.80;99.90;;;;;;4178431;28;20037;-89
2022/03/31 10:11:25;;;;;;;13.68;4.03;;;11.80;99.90;;;;;;4173254;28;20607;-89
2022/03/31 10:13:36;;;;;;;11.52;4.90;;;11.80;99.90;;;;;;4171322;28;20451;-88
2022/03/31 10:15:41;;;;;;;12.32;4.57;;;11.80;99.90;;;;;;4173456;28;20037;-89
2022/03/31 10:17:43;;;;;;;11.50;5.43;;;11.70;99.90;;;;;;4179527;28;20044;-88
2022/03/31 10:19:46;;;;;;;17.80;4.55;;;11.70;99.90;;;;;;4179487;28;20119;-89
2022/03/31 10:22:00;;;;;;;5.28;4.57;;;11.60;99.90;;;;;;4162796;28;20071;-89
2022/03/31 10:26:27;;;;;;;12.35;3.72;;;11.60;99.90;;;;;;4196282;28;20384;-89
2022/03/31 10:28:30;;;;;;;14.50;3.42;;;11.60;99.90;;;;;;4190445;28;20048;-87
2022/03/31 10:30:32;;;;;;;14.40;4.10;;;11.50;99.90;;;;;;4177562;28;20040;-88
2022/03/31 10:32:34;;;;;;;11.93;5.00;;;11.50;99.90;;;;;;4162586;28;20550;-88
2022/03/31 10:34:43;;;;;;;11.90;5.88;;;11.50;99.90;;;;;;4162973;28;20052;-88
2022/03/31 10:36:49;;;;;;;15.55;7.40;;;11.50;99.90;;;;;;4164496;28;20140;-89
2022/03/31 10:38:57;;;;;;;17.23;7.65;;;11.50;99.90;;;;;;4168282;28;20077;-89
2022/03/31 10:41:05;;;;;;;16.83;7.15;;;11.50;99.90;;;;;;4189270;28;20040;-89
2022/03/31 10:43:23;;;;;;;12.95;3.88;;;11.60;99.90;;;;;;4179427;28;20037;-89
2022/03/31 10:45:44;;;;;;;15.27;5.38;;;11.60;99.90;;;;;;4196673;28;20549;-89
2022/03/31 10:47:46;;;;;;;16.60;6.35;;;11.80;99.90;;;;;;4179052;28;20045;-89
2022/03/31 10:49:53;;;;;;;34.85;7.85;;;12.00;99.90;;;;;;4177921;28;20483;-88
2022/03/31 10:51:57;;;;;;;34.03;8.35;;;12.00;99.90;;;;;;4178974;28;20067;-89
2022/03/31 10:54:00;;;;;;;29.00;10.52;;;12.10;99.90;;;;;;4178999;28;20932;-89
2022/03/31 10:56:14;;;;;;;17.05;5.07;;;12.10;99.90;;;;;;4177627;28;20509;-90
2022/03/31 10:58:25;;;;;;;12.95;6.20;;;12.10;99.90;;;;;;4178320;28;20744;-89
2022/03/31 11:00:27;;;;;;;17.90;6.10;;;12.20;99.90;;;;;;4194530;28;20040;-90
2022/03/31 11:02:38;;;;;;;16.58;4.30;;;12.10;99.90;;;;;;4178554;28;20121;-89
2022/03/31 11:04:47;;;;;;;17.60;5.15;;;12.20;99.90;;;;;;4160997;28;20095;-89
2022/03/31 11:06:51;;;;;;;15.32;3.17;;;12.10;99.90;;;;;;4177774;28;20083;-89
2022/03/31 11:08:53;;;;;;;7.95;3.05;;;12.10;99.90;;;;;;4161807;28;20033;-89
2022/03/31 11:10:57;;;;;;;5.35;2.92;;;12.20;99.90;;;;;;4170746;28;20073;-90
2022/03/31 11:12:59;;;;;;;6.60;3.28;;;12.20;99.90;;;;;;4197849;28;20074;-90
2022/03/31 11:15:10;;;;;;;6.80;2.15;;;12.30;99.90;;;;;;4184009;28;20076;-88
2022/03/31 11:17:18;;;;;;;6.45;3.58;;;12.40;99.90;;;;;;4195691;28;20047;-88
2022/03/31 11:19:22;;;;;;;5.13;2.50;;;12.50;99.90;;;;;;4196163;28;20102;-89
2022/03/31 11:21:24;;;;;;;5.80;2.08;;;12.50;99.90;;;;;;4178126;28;20136;-89
2022/03/31 11:23:28;;;;;;;6.00;1.92;;;12.50;99.90;;;;;;4177228;28;20503;-88
2022/03/31 11:25:33;;;;;;;3.38;2.70;;;12.50;99.90;;;;;;4178210;28;20040;-88
2022/03/31 11:27:38;;;;;;;4.90;2.00;;;12.50;99.90;;;;;;4178019;28;20055;-89
2022/03/31 11:29:41;;;;;;;4.50;1.83;;;12.50;99.90;;;;;;4171988;28;20045;-89
2022/03/31 11:31:54;;;;;;;1.95;1.88;;;12.40;99.90;;;;;;4178034;28;20091;-87
2022/03/31 11:33:58;;;;;;;3.65;2.47;;;12.40;99.90;;;;;;4169855;28;20049;-88
2022/03/31 11:36:01;;;;;;;1.92;1.77;;;12.30;99.90;;;;;;4161548;28;20436;-88
2022/03/31 11:38:09;;;;;;;4.63;2.03;;;12.30;99.90;;;;;;4161780;28;20041;-89
2022/03/31 11:40:25;;;;;;;5.50;2.35;;;12.30;99.90;;;;;;4178319;28;20036;-89
2022/03/31 11:42:28;;;;;;;2.97;2.53;;;12.30;99.90;;;;;;4161630;28;20136;-90
2022/03/31 11:44:39;;;;;;;;;;;12.40;99.90;;;;;;4195199;28;20584;-90
2022/03/31 11:46:42;;;;;;;3.90;1.70;;;12.30;99.90;;;;;;4160544;28;20273;-90
2022/03/31 11:48:49;;;;;;;3.10;1.58;;;12.20;99.90;;;;;;4177982;28;20068;-89
2022/03/31 11:51:03;;;;;;;4.03;2.20;;;12.20;99.90;;;;;;4178443;28;20040;-90
2022/03/31 11:53:25;;;;;;;2.35;1.88;;;12.30;99.90;;;;;;4161748;28;20056;-89
2022/03/31 11:55:28;;;;;;;3.53;1.85;;;12.20;99.90;;;;;;4164249;28;20038;-90
2022/03/31 11:57:33;;;;;;;5.95;1.70;;;12.20;99.90;;;;;;4175431;28;20450;-92
2022/03/31 11:59:37;;;;;;;5.43;1.67;;;12.20;99.90;;;;;;4178404;28;20099;-90
2022/03/31 12:01:43;;;;;;;6.47;1.50;;;12.30;99.90;;;;;;4177257;28;20535;-91
2022/03/31 12:03:47;;;;;;;5.13;2.80;;;12.30;99.90;;;;;;4187988;28;20033;-93
2022/03/31 12:06:00;;;;;;;6.78;2.55;;;12.20;99.90;;;;;;4152037;28;20076;-92
2022/03/31 12:08:02;;;;;;;6.47;2.33;;;12.20;99.90;;;;;;4194617;28;20060;-94
2022/03/31 12:10:04;;;;;;;2.60;1.80;;;12.20;99.90;;;;;;4194307;28;20040;-89
2022/03/31 12:12:13;;;;;;;2.17;1.77;;;12.20;99.90;;;;;;4177916;28;20577;-92
2022/03/31 12:14:15;;;;;;;4.97;2.08;;;12.30;99.90;;;;;;4177839;28;20132;-90
2022/03/31 12:16:20;;;;;;;3.38;2.50;;;12.30;99.90;;;;;;4175557;28;20048;-93
2022/03/31 12:18:26;;;;;;;4.65;2.13;;;12.30;99.90;;;;;;4159871;28;20084;-91
2022/03/31 12:20:31;;;;;;;7.32;2.83;;;12.30;99.90;;;;;;4177872;28;20073;-91
2022/03/31 12:22:34;;;;;;;5.07;2.10;;;12.30;99.90;;;;;;4190273;28;20120;-91
2022/03/31 12:24:50;;;;;;;5.47;2.35;;;12.20;99.90;;;;;;4177985;28;20045;-89
2022/03/31 12:26:56;;;;;;;5.30;2.83;;;12.20;99.90;;;;;;4176382;28;20107;-92
2022/03/31 12:29:01;;;;;;;4.85;3.03;;;12.20;99.90;;;;;;4177433;28;20037;-89
2022/03/31 12:31:04;;;;;;;4.93;2.55;;;12.20;99.90;;;;;;4161674;28;20038;-91
2022/03/31 12:33:26;;;;;;;6.15;3.70;;;12.10;99.90;;;;;;4160317;28;20051;-91
2022/03/31 12:35:31;;;;;;;5.00;3.95;;;12.00;99.90;;;;;;4184611;28;20040;-91
2022/03/31 12:37:38;;;;;;;9.57;2.90;;;12.00;99.90;;;;;;4177648;28;20100;-88
2022/03/31 12:39:43;;;;;;;4.13;2.33;;;12.00;99.90;;;;;;4193897;28;20075;-88